Wetterdaten: aktuell Sonntag, 18.02.2018 04:00
Datum Zeit Temp. A. Feuchte A. Luftdruck Regen Wind Richtung Richtung Taupunkt Windchill Windben
18.02.2018 04:00 -1,9 C 93 % 1026,9 hPa 0,0 l/m 0,0 km/h (0 Bft) W-SW 254 -2,9 C -1,9 C 1,6 km/h (1 Bft)
18.02.2018 03:45 -1,9 C 93 % 1026,9 hPa 0,0 l/m 0,0 km/h (0 Bft) W-SW 254 -2,9 C -1,9 C 0,0 km/h (0 Bft)
18.02.2018 03:30 -1,9 C 93 % 1027,0 hPa 0,0 l/m 0,0 km/h (0 Bft) W-SW 254 -2,9 C -1,9 C 0,0 km/h (0 Bft)
18.02.2018 03:17 -1,8 C 93 % 1027,0 hPa 0,0 l/m 0,0 km/h (0 Bft) W-SW 254 -2,8 C -1,8 C 0,0 km/h (0 Bft)
18.02.2018 03:00 -1,8 C 93 % 1027,0 hPa 0,0 l/m 0,0 km/h (0 Bft) W-SW 254 -2,8 C -1,8 C 0,0 km/h (0 Bft)
18.02.2018 02:45 -1,7 C 93 % 1027,1 hPa 0,0 l/m 0,0 km/h (0 Bft) W-SW 254 -2,7 C -1,7 C 0,0 km/h (0 Bft)
18.02.2018 02:30 -1,7 C 93 % 1027,0 hPa 0,0 l/m 0,0 km/h (0 Bft) W-SW 254 -2,7 C -1,7 C 0,0 km/h (0 Bft)
18.02.2018 02:15 -1,8 C 92 % 1026,9 hPa 0,0 l/m 0,0 km/h (0 Bft) W-SW 254 -2,9 C -1,8 C 0,0 km/h (0 Bft)
18.02.2018 02:00 -1,7 C 92 % 1027,0 hPa 0,0 l/m 0,0 km/h (0 Bft) W-SW 254 -2,8 C -1,7 C 0,0 km/h (0 Bft)
18.02.2018 01:45 -1,5 C 92 % 1027,0 hPa 0,0 l/m 0,0 km/h (0 Bft) W-SW 254 -2,6 C -1,5 C 0,0 km/h (0 Bft)
18.02.2018 01:30 -1,3 C 92 % 1026,9 hPa 0,0 l/m 0,0 km/h (0 Bft) W-SW 254 -2,4 C -1,3 C 0,0 km/h (0 Bft)
18.02.2018 01:15 -1,6 C 92 % 1026,8 hPa 0,0 l/m 0,0 km/h (0 Bft) W-SW 253 -2,7 C -1,6 C 0,0 km/h (0 Bft)
18.02.2018 01:00 -1,7 C 92 % 1026,7 hPa 0,0 l/m 0,0 km/h (0 Bft) W-SW 253 -2,8 C -1,7 C 0,0 km/h (0 Bft)
18.02.2018 00:46 -1,9 C 91 % 1026,8 hPa 0,0 l/m 0,0 km/h (0 Bft) W-SW 253 -3,2 C -1,9 C 0,0 km/h (0 Bft)
18.02.2018 00:31 -1,6 C 91 % 1026,8 hPa 0,0 l/m 0,0 km/h (0 Bft) W-SW 253 -2,9 C -1,6 C 0,0 km/h (0 Bft)
18.02.2018 00:15 -1,3 C 91 % 1026,8 hPa 0,0 l/m 0,0 km/h (0 Bft) W-SW 253 -2,6 C -1,3 C 0,0 km/h (0 Bft)
18.02.2018 00:00 -1,4 C 91 % 1026,8 hPa 0,0 l/m 0,0 km/h (0 Bft) W-SW 253 -2,7 C -1,4 C 0,0 km/h (0 Bft)
17.02.2018 23:45 -1,4 C 91 % 1026,7 hPa 0,0 l/m 0,0 km/h (0 Bft) W-SW 253 -2,7 C -1,4 C 1,6 km/h (1 Bft)
17.02.2018 23:30 -1,3 C 90 % 1026,7 hPa 0,0 l/m 0,0 km/h (0 Bft) W-SW 253 -2,7 C -1,3 C 0,0 km/h (0 Bft)
17.02.2018 23:21 -1,2 C 90 % 1026,6 hPa 0,0 l/m 0,0 km/h (0 Bft) W-SW 253 -2,6 C -1,2 C 0,0 km/h (0 Bft)
17.02.2018 23:00 -1,1 C 90 % 1026,5 hPa 0,0 l/m 0,0 km/h (0 Bft) W-SW 253 -2,5 C -1,1 C 0,0 km/h (0 Bft)
17.02.2018 22:45 -0,9 C 90 % 1026,5 hPa 0,0 l/m 0,0 km/h (0 Bft) W-SW 253 -2,3 C -0,9 C 0,0 km/h (0 Bft)
17.02.2018 22:30 -0,8 C 90 % 1026,2 hPa 0,0 l/m 0,0 km/h (0 Bft) W-SW 253 -2,2 C -0,8 C 0,0 km/h (0 Bft)
17.02.2018 22:15 -0,8 C 89 % 1026,0 hPa 0,0 l/m 0,0 km/h (0 Bft) W-SW 253 -2,4 C -0,8 C 0,0 km/h (0 Bft)
17.02.2018 22:00 -0,8 C 89 % 1025,9 hPa 0,0 l/m 0,0 km/h (0 Bft) W-SW 253 -2,4 C -0,8 C 0,0 km/h (0 Bft)
17.02.2018 21:46 -0,8 C 88 % 1025,9 hPa 0,0 l/m 0,0 km/h (0 Bft) W-SW 253 -2,5 C -0,8 C 0,0 km/h (0 Bft)
17.02.2018 21:30 -0,6 C 87 % 1025,7 hPa 0,0 l/m 0,0 km/h (0 Bft) W-SW 253 -2,5 C -0,6 C 0,0 km/h (0 Bft)
17.02.2018 21:15 -0,3 C 87 % 1025,6 hPa 0,0 l/m 0,0 km/h (0 Bft) W-SW 253 -2,2 C -0,3 C 0,0 km/h (0 Bft)
17.02.2018 21:00 -0,2 C 86 % 1025,4 hPa 0,0 l/m 0,0 km/h (0 Bft) W-SW 253 -2,3 C -0,2 C 0,0 km/h (0 Bft)
17.02.2018 20:45 0,2 C 86 % 1025,2 hPa 0,0 l/m 0,0 km/h (0 Bft) W-SW 253 -1,9 C 0,2 C 0,0 km/h (0 Bft)
17.02.2018 20:30 0,3 C 85 % 1025,2 hPa 0,0 l/m 0,0 km/h (0 Bft) W-SW 253 -1,9 C 0,3 C 0,0 km/h (0 Bft)
17.02.2018 20:15 0,3 C 84 % 1025,3 hPa 0,0 l/m 0,0 km/h (0 Bft) W-SW 253 -2,1 C 0,3 C 0,0 km/h (0 Bft)
17.02.2018 20:01 0,6 C 83 % 1025,3 hPa 0,0 l/m 0,0 km/h (0 Bft) W-SW 253 -1,9 C 0,6 C 0,0 km/h (0 Bft)
17.02.2018 19:45 0,9 C 82 % 1025,2 hPa 0,0 l/m 0,0 km/h (0 Bft) W-SW 253 -1,8 C 0,9 C 0,0 km/h (0 Bft)
17.02.2018 19:30 1,2 C 80 % 1025,1 hPa 0,0 l/m 0,0 km/h (0 Bft) W-SW 253 -1,9 C 1,2 C 0,0 km/h (0 Bft)
17.02.2018 19:15 1,7 C 78 % 1025,0 hPa 0,0 l/m 0,0 km/h (0 Bft) W-SW 253 -1,7 C 1,7 C 0,0 km/h (0 Bft)
17.02.2018 19:00 2,2 C 76 % 1024,9 hPa 0,0 l/m 0,0 km/h (0 Bft) W-SW 253 -1,6 C 2,2 C 0,0 km/h (0 Bft)
17.02.2018 18:45 2,7 C 74 % 1024,8 hPa 0,0 l/m 0,0 km/h (0 Bft) W-SW 253 -1,5 C 2,7 C 1,6 km/h (1 Bft)
17.02.2018 18:30 3,3 C 72 % 1024,7 hPa 0,0 l/m 0,0 km/h (0 Bft) W-SW 253 -1,3 C 3,3 C 0,0 km/h (0 Bft)
17.02.2018 18:15 3,9 C 70 % 1024,6 hPa 0,0 l/m 0,0 km/h (0 Bft) W-SW 253 -1,1 C 3,9 C 0,0 km/h (0 Bft)
17.02.2018 18:00 4,4 C 68 % 1024,4 hPa 0,0 l/m 0,0 km/h (0 Bft) W-SW 253 -1,0 C 4,4 C 0,0 km/h (0 Bft)
17.02.2018 17:45 4,7 C 67 % 1024,2 hPa 0,0 l/m 0,0 km/h (0 Bft) W-SW 253 -0,9 C 4,7 C 0,0 km/h (0 Bft)
17.02.2018 17:30 5,0 C 66 % 1024,1 hPa 0,0 l/m 0,0 km/h (0 Bft) W-SW 253 -0,8 C 5,0 C 1,6 km/h (1 Bft)
17.02.2018 17:15 5,2 C 65 % 1024,1 hPa 0,0 l/m 0,1 km/h (0 Bft) W-SW 253 -0,8 C 5,2 C 3,2 km/h (1 Bft)
17.02.2018 17:00 5,5 C 65 % 1023,9 hPa 0,0 l/m 0,2 km/h (0 Bft) W-SW 253 -0,5 C 5,5 C 3,2 km/h (1 Bft)
17.02.2018 16:45 5,7 C 65 % 1023,8 hPa 0,0 l/m 0,4 km/h (0 Bft) W-SW 252 -0,4 C 5,7 C 6,4 km/h (2 Bft)
17.02.2018 16:30 5,8 C 64 % 1023,7 hPa 0,0 l/m 1,0 km/h (0 Bft) W-SW 252 -0,5 C 5,8 C 8,0 km/h (2 Bft)
17.02.2018 16:15 5,8 C 64 % 1023,7 hPa 0,0 l/m 1,8 km/h (1 Bft) W-SW 251 -0,5 C 5,8 C 8,0 km/h (2 Bft)
17.02.2018 16:00 5,8 C 64 % 1023,6 hPa 0,0 l/m 1,4 km/h (1 Bft) W 275 -0,5 C 5,8 C 6,4 km/h (2 Bft)
17.02.2018 15:45 5,9 C 63 % 1023,6 hPa 0,0 l/m 1,8 km/h (1 Bft) W 273 -0,6 C 5,9 C 8,0 km/h (2 Bft)
17.02.2018 15:30 5,9 C 62 % 1023,6 hPa 0,0 l/m 2,3 km/h (1 Bft) W-SW 251 -0,8 C 5,9 C 9,7 km/h (2 Bft)
17.02.2018 15:15 6,0 C 63 % 1023,5 hPa 0,0 l/m 2,0 km/h (1 Bft) W 270 -0,5 C 6,0 C 8,0 km/h (2 Bft)
17.02.2018 15:00 6,0 C 63 % 1023,5 hPa 0,0 l/m 1,7 km/h (1 Bft) W-SW 258 -0,5 C 6,0 C 9,7 km/h (2 Bft)
17.02.2018 14:45 6,1 C 66 % 1023,4 hPa 0,0 l/m 0,8 km/h (0 Bft) W 270 0,2 C 6,1 C 6,4 km/h (2 Bft)
17.02.2018 14:30 6,2 C 66 % 1023,4 hPa 0,0 l/m 2,7 km/h (1 Bft) W-SW 245 0,3 C 6,2 C 9,7 km/h (2 Bft)
17.02.2018 14:15 6,4 C 69 % 1023,4 hPa 0,0 l/m 1,8 km/h (1 Bft) W-SW 237 1,1 C 6,4 C 8,0 km/h (2 Bft)
17.02.2018 14:01 6,5 C 68 % 1023,5 hPa 0,0 l/m 2,0 km/h (1 Bft) SW 225 1,0 C 6,5 C 8,0 km/h (2 Bft)
17.02.2018 13:45 6,1 C 68 % 1023,4 hPa 0,0 l/m 2,0 km/h (1 Bft) W 262 0,6 C 6,1 C 8,0 km/h (2 Bft)
17.02.2018 13:30 6,1 C 71 % 1023,4 hPa 0,0 l/m 2,1 km/h (1 Bft) W 261 1,2 C 6,1 C 8,0 km/h (2 Bft)
17.02.2018 13:15 5,9 C 72 % 1023,5 hPa 0,0 l/m 3,8 km/h (1 Bft) W-SW 244 1,2 C 5,9 C 9,7 km/h (2 Bft)
17.02.2018 13:00 6,2 C 74 % 1023,5 hPa 0,0 l/m 3,0 km/h (1 Bft) SW 217 1,9 C 6,2 C 8,0 km/h (2 Bft)
17.02.2018 12:45 5,9 C 74 % 1023,6 hPa 0,0 l/m 3,1 km/h (1 Bft) SW 219 1,6 C 5,9 C 8,0 km/h (2 Bft)
17.02.2018 12:30 5,4 C 78 % 1023,7 hPa 0,0 l/m 1,8 km/h (1 Bft) S-SW 210 1,9 C 5,4 C 6,4 km/h (2 Bft)
17.02.2018 12:15 4,6 C 79 % 1023,7 hPa 0,0 l/m 1,6 km/h (1 Bft) S-SW 202 1,3 C 4,6 C 6,4 km/h (2 Bft)
17.02.2018 12:00 4,1 C 83 % 1023,8 hPa 0,0 l/m 0,0 km/h (0 Bft) S-SW 202 1,5 C 4,1 C 4,8 km/h (1 Bft)
17.02.2018 11:45 3,2 C 85 % 1023,7 hPa 0,0 l/m 0,0 km/h (0 Bft) S 180 0,9 C 3,2 C 4,8 km/h (1 Bft)
17.02.2018 11:30 2,6 C 87 % 1023,8 hPa 0,0 l/m 0,0 km/h (0 Bft) S-SO 157 0,7 C 2,6 C 1,6 km/h (1 Bft)
17.02.2018 11:15 1,8 C 89 % 1023,7 hPa 0,0 l/m 0,0 km/h (0 Bft) N 0 0,2 C 1,8 C 0,0 km/h (0 Bft)
17.02.2018 11:00 1,4 C 91 % 1023,7 hPa 0,0 l/m 0,0 km/h (0 Bft) S-SO 157 0,1 C 1,4 C 4,8 km/h (1 Bft)
17.02.2018 10:48 1,2 C 92 % 1023,6 hPa 0,0 l/m 0,0 km/h (0 Bft) S-SO 158 0,0 C 1,2 C 3,2 km/h (1 Bft)
17.02.2018 10:30 0,6 C 94 % 1023,5 hPa 0,0 l/m 0,0 km/h (0 Bft) S-SO 156 -0,3 C 0,6 C 1,6 km/h (1 Bft)
17.02.2018 10:15 0,3 C 94 % 1023,5 hPa 0,0 l/m 0,3 km/h (0 Bft) S-SO 156 -0,5 C 0,3 C 3,2 km/h (1 Bft)
17.02.2018 10:00 -0,1 C 95 % 1023,5 hPa 0,0 l/m 0,0 km/h (0 Bft) S-SO 154 -0,8 C -0,1 C 0,0 km/h (0 Bft)
17.02.2018 09:45 -0,4 C 95 % 1023,5 hPa 0,0 l/m 0,0 km/h (0 Bft) S-SO 154 -1,1 C -0,4 C 1,6 km/h (1 Bft)
17.02.2018 09:30 -0,7 C 94 % 1023,6 hPa 0,0 l/m 0,0 km/h (0 Bft) S-SO 154 -1,5 C -0,7 C 1,6 km/h (1 Bft)
17.02.2018 09:15 -1,1 C 94 % 1023,5 hPa 0,0 l/m 0,0 km/h (0 Bft) S-SO 150 -1,9 C -1,1 C 1,6 km/h (1 Bft)
17.02.2018 09:01 -1,3 C 94 % 1023,6 hPa 0,0 l/m 0,0 km/h (0 Bft) S-SO 150 -2,1 C -1,3 C 0,0 km/h (0 Bft)
17.02.2018 08:46 -1,5 C 94 % 1023,6 hPa 0,0 l/m 0,0 km/h (0 Bft) S-SO 150 -2,3 C -1,5 C 0,0 km/h (0 Bft)
17.02.2018 08:30 -1,6 C 94 % 1023,8 hPa 0,0 l/m 0,0 km/h (0 Bft) S-SO 150 -2,4 C -1,6 C 0,0 km/h (0 Bft)
17.02.2018 08:15 -1,6 C 94 % 1023,9 hPa 0,0 l/m 0,0 km/h (0 Bft) S-SO 150 -2,4 C -1,6 C 0,0 km/h (0 Bft)
17.02.2018 08:00 -1,6 C 94 % 1024,1 hPa 0,0 l/m 0,0 km/h (0 Bft) S-SO 150 -2,4 C -1,6 C 0,0 km/h (0 Bft)
17.02.2018 06:51 -1,7 C 93 % 1024,1 hPa 0,0 l/m 0,1 km/h (0 Bft) S-SO 150 -2,7 C -1,7 C 3,2 km/h (1 Bft)
17.02.2018 06:32 -1,8 C 93 % 1024,2 hPa 0,0 l/m 0,0 km/h (0 Bft) S-SO 147 -2,8 C -1,8 C 0,0 km/h (0 Bft)
17.02.2018 06:15 -1,7 C 93 % 1024,3 hPa 0,0 l/m 0,0 km/h (0 Bft) S-SO 147 -2,7 C -1,7 C 1,6 km/h (1 Bft)
17.02.2018 06:00 -1,4 C 93 % 1024,6 hPa 0,0 l/m 0,0 km/h (0 Bft) O-NO 70 -2,4 C -1,4 C 0,0 km/h (0 Bft)
_ Min-Zeit 03:45 15:30 13:30 - 06:00 - - 00:46 00:46 06:00
Minimum _ -2,0 C 62 % 1023,4 hPa - 0,0 km/h (0 Bft) - - -3,2 C -1,9 C 0,0 km/h (0 Bft)
_ Max-Zeit 14:01 09:45 02:45 06:00 13:15 - - 13:00 14:01 13:15
Maximum _ 6,5 C 95 % 1027,1 hPa 0,0 l/m 3,8 km/h
W-SW (1 Bft)
- - 1,9 C 6,5 C 9,7 km/h
W-SW (2 Bft)
Durchschnitt _ 1,0 C 84 % 1024,8 hPa #0,0 l/m 0,4 km/h (0 Bft) W-SW - -1,5 C 1,0 C 2,1 km/h (1 Bft)